sensor_id;sensor_type;location;lat;lon;timestamp;P1;durP1;ratioP1;P2;durP2;ratioP2
44722;SDS011;30451;48.638;10.624;2024-03-23T00:55:34;2.83;;;1.20;;
44722;SDS011;30451;48.638;10.624;2024-03-23T00:57:59;2.38;;;1.40;;
44722;SDS011;30451;48.638;10.624;2024-03-23T01:00:25;1.50;;;1.20;;
44722;SDS011;30451;48.638;10.624;2024-03-23T01:02:51;2.22;;;1.38;;
44722;SDS011;30451;48.638;10.624;2024-03-23T01:05:16;1.98;;;1.27;;
44722;SDS011;30451;48.638;10.624;2024-03-23T01:07:42;1.77;;;1.30;;
44722;SDS011;30451;48.638;10.624;2024-03-23T01:10:07;2.55;;;1.38;;
44722;SDS011;30451;48.638;10.624;2024-03-23T01:12:33;2.78;;;1.30;;
44722;SDS011;30451;48.638;10.624;2024-03-23T01:14:59;2.22;;;1.30;;
44722;SDS011;30451;48.638;10.624;2024-03-23T01:17:25;1.92;;;1.20;;
44722;SDS011;30451;48.638;10.624;2024-03-23T01:19:50;2.15;;;1.23;;
44722;SDS011;30451;48.638;10.624;2024-03-23T01:22:16;2.17;;;1.15;;
44722;SDS011;30451;48.638;10.624;2024-03-23T01:24:41;2.00;;;1.25;;
44722;SDS011;30451;48.638;10.624;2024-03-23T01:27:08;1.92;;;1.30;;
44722;SDS011;30451;48.638;10.624;2024-03-23T01:29:33;1.88;;;1.35;;
44722;SDS011;30451;48.638;10.624;2024-03-23T01:31:59;2.20;;;1.40;;
44722;SDS011;30451;48.638;10.624;2024-03-23T01:34:25;2.10;;;1.33;;
44722;SDS011;30451;48.638;10.624;2024-03-23T01:36:50;2.53;;;1.65;;
44722;SDS011;30451;48.638;10.624;2024-03-23T01:39:16;1.83;;;1.40;;
44722;SDS011;30451;48.638;10.624;2024-03-23T01:41:42;2.22;;;1.40;;
44722;SDS011;30451;48.638;10.624;2024-03-23T01:44:08;2.13;;;1.30;;
44722;SDS011;30451;48.638;10.624;2024-03-23T01:46:37;1.65;;;1.20;;
44722;SDS011;30451;48.638;10.624;2024-03-23T01:49:04;1.63;;;1.10;;
44722;SDS011;30451;48.638;10.624;2024-03-23T01:51:30;2.00;;;1.30;;
44722;SDS011;30451;48.638;10.624;2024-03-23T01:53:56;2.22;;;1.40;;
44722;SDS011;30451;48.638;10.624;2024-03-23T01:56:22;2.40;;;1.33;;
44722;SDS011;30451;48.638;10.624;2024-03-23T01:58:48;1.63;;;1.20;;
44722;SDS011;30451;48.638;10.624;2024-03-23T02:01:14;1.88;;;1.30;;
44722;SDS011;30451;48.638;10.624;2024-03-23T02:03:39;2.03;;;1.20;;
44722;SDS011;30451;48.638;10.624;2024-03-23T02:06:05;1.85;;;1.20;;
44722;SDS011;30451;48.638;10.624;2024-03-23T02:08:32;1.80;;;1.23;;
44722;SDS011;30451;48.638;10.624;2024-03-23T02:10:58;2.17;;;1.30;;
44722;SDS011;30451;48.638;10.624;2024-03-23T02:13:24;1.70;;;1.15;;
44722;SDS011;30451;48.638;10.624;2024-03-23T02:15:49;1.98;;;1.20;;
44722;SDS011;30451;48.638;10.624;2024-03-23T02:18:15;2.03;;;1.23;;
44722;SDS011;30451;48.638;10.624;2024-03-23T02:20:40;1.83;;;1.30;;
44722;SDS011;30451;48.638;10.624;2024-03-23T02:23:12;1.95;;;1.20;;
44722;SDS011;30451;48.638;10.624;2024-03-23T02:25:42;1.92;;;1.30;;
44722;SDS011;30451;48.638;10.624;2024-03-23T02:28:08;2.47;;;1.30;;
44722;SDS011;30451;48.638;10.624;2024-03-23T02:30:34;1.42;;;1.23;;
44722;SDS011;30451;48.638;10.624;2024-03-23T02:33:00;2.05;;;1.20;;
44722;SDS011;30451;48.638;10.624;2024-03-23T02:35:26;1.60;;;1.17;;
44722;SDS011;30451;48.638;10.624;2024-03-23T02:37:52;2.45;;;1.17;;
44722;SDS011;30451;48.638;10.624;2024-03-23T02:40:18;1.92;;;1.17;;
44722;SDS011;30451;48.638;10.624;2024-03-23T02:42:45;1.58;;;1.10;;
44722;SDS011;30451;48.638;10.624;2024-03-23T02:45:11;1.73;;;1.17;;
44722;SDS011;30451;48.638;10.624;2024-03-23T02:47:37;1.75;;;1.10;;
44722;SDS011;30451;48.638;10.624;2024-03-23T02:50:02;1.40;;;1.05;;
44722;SDS011;30451;48.638;10.624;2024-03-23T02:52:29;1.50;;;1.00;;
44722;SDS011;30451;48.638;10.624;2024-03-23T02:54:55;1.92;;;1.20;;
44722;SDS011;30451;48.638;10.624;2024-03-23T02:57:20;1.70;;;1.20;;
44722;SDS011;30451;48.638;10.624;2024-03-23T02:59:46;1.92;;;1.30;;
44722;SDS011;30451;48.638;10.624;2024-03-23T03:02:12;1.80;;;1.27;;
44722;SDS011;30451;48.638;10.624;2024-03-23T03:04:38;2.35;;;1.20;;
44722;SDS011;30451;48.638;10.624;2024-03-23T03:07:04;1.55;;;1.20;;
44722;SDS011;30451;48.638;10.624;2024-03-23T03:09:30;1.80;;;1.30;;
44722;SDS011;30451;48.638;10.624;2024-03-23T03:11:55;2.28;;;1.30;;
44722;SDS011;30451;48.638;10.624;2024-03-23T03:14:21;1.75;;;1.30;;
44722;SDS011;30451;48.638;10.624;2024-03-23T03:16:47;1.83;;;1.27;;
44722;SDS011;30451;48.638;10.624;2024-03-23T03:19:13;1.75;;;1.27;;
44722;SDS011;30451;48.638;10.624;2024-03-23T03:21:38;1.98;;;1.10;;
44722;SDS011;30451;48.638;10.624;2024-03-23T03:24:05;1.75;;;1.10;;
44722;SDS011;30451;48.638;10.624;2024-03-23T03:26:31;2.13;;;1.20;;
44722;SDS011;30451;48.638;10.624;2024-03-23T03:28:57;1.83;;;1.27;;
44722;SDS011;30451;48.638;10.624;2024-03-23T03:31:22;2.03;;;1.20;;
44722;SDS011;30451;48.638;10.624;2024-03-23T03:33:49;1.38;;;1.02;;
44722;SDS011;30451;48.638;10.624;2024-03-23T03:36:16;2.58;;;1.30;;
44722;SDS011;30451;48.638;10.624;2024-03-23T03:38:42;2.22;;;1.30;;
44722;SDS011;30451;48.638;10.624;2024-03-23T03:41:07;1.63;;;1.20;;
44722;SDS011;30451;48.638;10.624;2024-03-23T03:43:33;1.48;;;1.10;;
44722;SDS011;30451;48.638;10.624;2024-03-23T03:45:59;1.48;;;1.13;;
44722;SDS011;30451;48.638;10.624;2024-03-23T03:48:26;2.15;;;1.30;;
44722;SDS011;30451;48.638;10.624;2024-03-23T03:50:52;1.55;;;1.20;;
44722;SDS011;30451;48.638;10.624;2024-03-23T03:53:18;1.90;;;1.20;;
44722;SDS011;30451;48.638;10.624;2024-03-23T03:55:44;1.52;;;0.98;;
44722;SDS011;30451;48.638;10.624;2024-03-23T03:58:09;1.77;;;1.05;;
44722;SDS011;30451;48.638;10.624;2024-03-23T04:00:35;1.95;;;1.25;;
44722;SDS011;30451;48.638;10.624;2024-03-23T04:03:01;2.38;;;1.40;;
44722;SDS011;30451;48.638;10.624;2024-03-23T04:05:27;1.80;;;1.20;;
44722;SDS011;30451;48.638;10.624;2024-03-23T04:07:52;1.67;;;1.13;;
44722;SDS011;30451;48.638;10.624;2024-03-23T04:10:19;2.20;;;1.38;;
44722;SDS011;30451;48.638;10.624;2024-03-23T04:12:45;2.45;;;1.30;;
44722;SDS011;30451;48.638;10.624;2024-03-23T04:15:11;1.88;;;1.30;;
44722;SDS011;30451;48.638;10.624;2024-03-23T04:17:36;2.08;;;1.30;;
44722;SDS011;30451;48.638;10.624;2024-03-23T04:20:02;1.38;;;1.15;;
44722;SDS011;30451;48.638;10.624;2024-03-23T04:22:33;1.73;;;1.10;;
44722;SDS011;30451;48.638;10.624;2024-03-23T04:24:58;1.90;;;1.20;;
44722;SDS011;30451;48.638;10.624;2024-03-23T04:27:24;2.20;;;1.15;;
44722;SDS011;30451;48.638;10.624;2024-03-23T04:29:50;1.85;;;1.10;;
44722;SDS011;30451;48.638;10.624;2024-03-23T04:32:16;1.67;;;1.10;;
44722;SDS011;30451;48.638;10.624;2024-03-23T04:34:42;1.63;;;1.10;;
44722;SDS011;30451;48.638;10.624;2024-03-23T04:37:09;1.67;;;1.20;;
44722;SDS011;30451;48.638;10.624;2024-03-23T04:39:38;1.40;;;1.10;;
44722;SDS011;30451;48.638;10.624;2024-03-23T04:42:04;1.85;;;1.10;;
44722;SDS011;30451;48.638;10.624;2024-03-23T04:44:30;1.75;;;1.17;;
44722;SDS011;30451;48.638;10.624;2024-03-23T04:46:56;1.88;;;1.23;;
44722;SDS011;30451;48.638;10.624;2024-03-23T04:49:22;1.70;;;1.10;;
44722;SDS011;30451;48.638;10.624;2024-03-23T04:51:48;1.60;;;1.15;;
44722;SDS011;30451;48.638;10.624;2024-03-23T04:54:13;1.85;;;1.20;;
44722;SDS011;30451;48.638;10.624;2024-03-23T04:56:39;1.85;;;1.20;;
44722;SDS011;30451;48.638;10.624;2024-03-23T04:59:05;1.52;;;1.02;;
44722;SDS011;30451;48.638;10.624;2024-03-23T05:01:31;1.35;;;1.08;;
44722;SDS011;30451;48.638;10.624;2024-03-23T05:03:57;1.52;;;1.10;;
44722;SDS011;30451;48.638;10.624;2024-03-23T05:06:23;1.25;;;1.10;;
44722;SDS011;30451;48.638;10.624;2024-03-23T05:08:49;1.63;;;1.13;;
44722;SDS011;30451;48.638;10.624;2024-03-23T05:11:15;2.20;;;1.20;;
44722;SDS011;30451;48.638;10.624;2024-03-23T05:13:41;1.60;;;1.00;;
44722;SDS011;30451;48.638;10.624;2024-03-23T05:16:07;2.08;;;1.10;;
44722;SDS011;30451;48.638;10.624;2024-03-23T05:18:33;1.70;;;1.20;;
44722;SDS011;30451;48.638;10.624;2024-03-23T05:20:59;1.95;;;1.20;;
44722;SDS011;30451;48.638;10.624;2024-03-23T05:23:25;1.17;;;1.00;;
44722;SDS011;30451;48.638;10.624;2024-03-23T05:25:51;1.73;;;1.05;;
44722;SDS011;30451;48.638;10.624;2024-03-23T05:28:18;1.40;;;1.00;;
44722;SDS011;30451;48.638;10.624;2024-03-23T05:30:43;1.60;;;1.00;;
44722;SDS011;30451;48.638;10.624;2024-03-23T05:33:14;1.85;;;1.00;;
44722;SDS011;30451;48.638;10.624;2024-03-23T05:35:40;1.60;;;1.08;;
44722;SDS011;30451;48.638;10.624;2024-03-23T05:38:06;1.52;;;1.10;;
44722;SDS011;30451;48.638;10.624;2024-03-23T05:40:31;1.60;;;1.10;;
44722;SDS011;30451;48.638;10.624;2024-03-23T05:42:57;1.70;;;1.10;;
44722;SDS011;30451;48.638;10.624;2024-03-23T05:45:23;1.33;;;1.00;;
44722;SDS011;30451;48.638;10.624;2024-03-23T05:47:48;1.33;;;0.98;;
44722;SDS011;30451;48.638;10.624;2024-03-23T05:50:14;1.48;;;1.00;;
44722;SDS011;30451;48.638;10.624;2024-03-23T05:52:40;1.40;;;1.05;;
44722;SDS011;30451;48.638;10.624;2024-03-23T05:55:07;2.15;;;0.90;;
44722;SDS011;30451;48.638;10.624;2024-03-23T05:57:33;1.77;;;1.30;;
44722;SDS011;30451;48.638;10.624;2024-03-23T05:59:58;1.77;;;1.17;;
44722;SDS011;30451;48.638;10.624;2024-03-23T06:02:24;1.40;;;1.00;;
44722;SDS011;30451;48.638;10.624;2024-03-23T06:04:49;1.83;;;1.20;;
44722;SDS011;30451;48.638;10.624;2024-03-23T06:07:15;1.90;;;1.27;;
44722;SDS011;30451;48.638;10.624;2024-03-23T06:09:41;1.00;;;0.85;;
44722;SDS011;30451;48.638;10.624;2024-03-23T06:12:07;1.92;;;0.98;;
44722;SDS011;30451;48.638;10.624;2024-03-23T06:14:33;1.58;;;1.05;;
44722;SDS011;30451;48.638;10.624;2024-03-23T06:16:59;1.23;;;0.98;;
44722;SDS011;30451;48.638;10.624;2024-03-23T06:19:25;1.05;;;0.90;;
44722;SDS011;30451;48.638;10.624;2024-03-23T06:21:52;1.70;;;1.10;;
44722;SDS011;30451;48.638;10.624;2024-03-23T06:24:19;1.70;;;1.00;;
44722;SDS011;30451;48.638;10.624;2024-03-23T06:26:45;1.60;;;0.90;;
44722;SDS011;30451;48.638;10.624;2024-03-23T06:29:11;1.13;;;0.90;;
44722;SDS011;30451;48.638;10.624;2024-03-23T06:31:36;1.33;;;1.00;;
44722;SDS011;30451;48.638;10.624;2024-03-23T06:34:02;1.02;;;0.90;;
44722;SDS011;30451;48.638;10.624;2024-03-23T06:36:28;1.30;;;0.90;;
44722;SDS011;30451;48.638;10.624;2024-03-23T06:38:55;1.08;;;0.80;;
44722;SDS011;30451;48.638;10.624;2024-03-23T06:41:21;1.48;;;1.00;;
44722;SDS011;30451;48.638;10.624;2024-03-23T06:43:47;2.42;;;1.25;;
44722;SDS011;30451;48.638;10.624;2024-03-23T06:46:12;1.52;;;1.10;;
44722;SDS011;30451;48.638;10.624;2024-03-23T06:48:38;1.33;;;1.00;;
44722;SDS011;30451;48.638;10.624;2024-03-23T06:51:03;1.27;;;1.00;;
44722;SDS011;30451;48.638;10.624;2024-03-23T06:53:29;1.60;;;1.00;;
44722;SDS011;30451;48.638;10.624;2024-03-23T06:55:55;1.33;;;1.00;;
44722;SDS011;30451;48.638;10.624;2024-03-23T06:58:21;1.95;;;1.20;;
44722;SDS011;30451;48.638;10.624;2024-03-23T07:00:48;2.28;;;1.08;;
44722;SDS011;30451;48.638;10.624;2024-03-23T07:03:14;1.05;;;0.90;;
44722;SDS011;30451;48.638;10.624;2024-03-23T07:05:40;1.42;;;1.00;;
44722;SDS011;30451;48.638;10.624;2024-03-23T07:08:06;1.48;;;1.00;;
44722;SDS011;30451;48.638;10.624;2024-03-23T07:10:32;1.42;;;1.00;;
44722;SDS011;30451;48.638;10.624;2024-03-23T07:12:58;1.25;;;0.90;;
44722;SDS011;30451;48.638;10.624;2024-03-23T07:15:23;1.85;;;1.00;;
44722;SDS011;30451;48.638;10.624;2024-03-23T07:17:49;1.42;;;1.20;;
44722;SDS011;30451;48.638;10.624;2024-03-23T07:20:15;2.28;;;1.00;;
44722;SDS011;30451;48.638;10.624;2024-03-23T07:22:41;1.65;;;1.00;;
44722;SDS011;30451;48.638;10.624;2024-03-23T07:25:06;1.90;;;1.02;;
44722;SDS011;30451;48.638;10.624;2024-03-23T07:27:32;1.50;;;1.10;;
44722;SDS011;30451;48.638;10.624;2024-03-23T07:29:58;2.15;;;1.23;;
44722;SDS011;30451;48.638;10.624;2024-03-23T07:32:26;1.77;;;1.20;;
44722;SDS011;30451;48.638;10.624;2024-03-23T07:34:51;1.48;;;1.00;;
44722;SDS011;30451;48.638;10.624;2024-03-23T07:37:18;1.58;;;1.02;;
44722;SDS011;30451;48.638;10.624;2024-03-23T07:39:43;1.75;;;0.93;;
44722;SDS011;30451;48.638;10.624;2024-03-23T07:42:09;1.33;;;0.93;;
44722;SDS011;30451;48.638;10.624;2024-03-23T07:44:34;1.83;;;1.05;;
44722;SDS011;30451;48.638;10.624;2024-03-23T07:47:00;2.25;;;1.02;;
44722;SDS011;30451;48.638;10.624;2024-03-23T07:49:26;1.30;;;0.90;;
44722;SDS011;30451;48.638;10.624;2024-03-23T07:51:52;1.75;;;1.00;;
44722;SDS011;30451;48.638;10.624;2024-03-23T07:54:18;1.85;;;1.00;;
44722;SDS011;30451;48.638;10.624;2024-03-23T07:56:44;2.22;;;1.10;;
44722;SDS011;30451;48.638;10.624;2024-03-23T07:59:09;1.60;;;0.98;;
44722;SDS011;30451;48.638;10.624;2024-03-23T08:01:36;1.52;;;0.93;;
44722;SDS011;30451;48.638;10.624;2024-03-23T08:04:01;1.98;;;1.02;;
44722;SDS011;30451;48.638;10.624;2024-03-23T08:06:27;1.80;;;1.00;;
44722;SDS011;30451;48.638;10.624;2024-03-23T08:08:54;2.10;;;1.00;;
44722;SDS011;30451;48.638;10.624;2024-03-23T08:11:27;1.52;;;0.98;;
44722;SDS011;30451;48.638;10.624;2024-03-23T08:13:53;1.42;;;1.00;;
44722;SDS011;30451;48.638;10.624;2024-03-23T08:16:20;1.67;;;1.05;;
44722;SDS011;30451;48.638;10.624;2024-03-23T08:18:46;1.35;;;1.00;;
44722;SDS011;30451;48.638;10.624;2024-03-23T08:21:11;1.27;;;0.90;;
44722;SDS011;30451;48.638;10.624;2024-03-23T08:23:37;1.95;;;1.10;;
44722;SDS011;30451;48.638;10.624;2024-03-23T08:26:04;1.88;;;0.95;;
44722;SDS011;30451;48.638;10.624;2024-03-23T08:28:40;1.70;;;1.00;;
44722;SDS011;30451;48.638;10.624;2024-03-23T08:31:09;1.65;;;1.10;;
44722;SDS011;30451;48.638;10.624;2024-03-23T08:33:35;1.50;;;1.02;;
44722;SDS011;30451;48.638;10.624;2024-03-23T08:36:03;1.02;;;0.85;;
44722;SDS011;30451;48.638;10.624;2024-03-23T08:38:29;1.10;;;0.80;;
44722;SDS011;30451;48.638;10.624;2024-03-23T08:45:51;1.92;;;1.00;;
44722;SDS011;30451;48.638;10.624;2024-03-23T08:48:17;1.38;;;0.88;;
44722;SDS011;30451;48.638;10.624;2024-03-23T08:50:45;1.33;;;0.85;;
44722;SDS011;30451;48.638;10.624;2024-03-23T08:53:11;1.00;;;0.90;;
44722;SDS011;30451;48.638;10.624;2024-03-23T08:55:37;1.45;;;0.93;;
44722;SDS011;30451;48.638;10.624;2024-03-23T08:58:02;1.23;;;0.80;;
44722;SDS011;30451;48.638;10.624;2024-03-23T09:00:29;1.23;;;0.80;;
44722;SDS011;30451;48.638;10.624;2024-03-23T09:02:55;0.95;;;0.80;;
44722;SDS011;30451;48.638;10.624;2024-03-23T09:05:22;1.50;;;0.90;;
44722;SDS011;30451;48.638;10.624;2024-03-23T09:07:49;1.10;;;0.90;;
44722;SDS011;30451;48.638;10.624;2024-03-23T09:10:15;1.58;;;0.90;;
44722;SDS011;30451;48.638;10.624;2024-03-23T09:12:40;1.40;;;0.98;;
44722;SDS011;30451;48.638;10.624;2024-03-23T09:15:06;1.00;;;0.77;;
44722;SDS011;30451;48.638;10.624;2024-03-23T09:17:32;1.23;;;0.90;;
44722;SDS011;30451;48.638;10.624;2024-03-23T09:19:57;1.45;;;0.90;;
44722;SDS011;30451;48.638;10.624;2024-03-23T09:22:23;1.20;;;0.75;;
44722;SDS011;30451;48.638;10.624;2024-03-23T09:24:49;1.35;;;0.90;;
44722;SDS011;30451;48.638;10.624;2024-03-23T09:27:14;1.33;;;0.80;;
44722;SDS011;30451;48.638;10.624;2024-03-23T09:29:40;1.50;;;0.80;;
44722;SDS011;30451;48.638;10.624;2024-03-23T09:32:05;1.23;;;0.80;;
44722;SDS011;30451;48.638;10.624;2024-03-23T09:34:31;1.80;;;1.00;;
44722;SDS011;30451;48.638;10.624;2024-03-23T09:36:56;1.30;;;0.80;;
44722;SDS011;30451;48.638;10.624;2024-03-23T09:39:22;1.13;;;0.70;;
44722;SDS011;30451;48.638;10.624;2024-03-23T09:41:48;1.00;;;0.77;;
44722;SDS011;30451;48.638;10.624;2024-03-23T09:44:13;1.52;;;0.80;;
44722;SDS011;30451;48.638;10.624;2024-03-23T09:46:39;1.27;;;0.80;;
44722;SDS011;30451;48.638;10.624;2024-03-23T09:49:06;1.00;;;0.90;;
44722;SDS011;30451;48.638;10.624;2024-03-23T09:51:35;2.03;;;0.80;;
44722;SDS011;30451;48.638;10.624;2024-03-23T09:54:01;1.20;;;0.70;;
44722;SDS011;30451;48.638;10.624;2024-03-23T09:56:27;1.63;;;0.82;;
44722;SDS011;30451;48.638;10.624;2024-03-23T09:58:59;1.30;;;0.75;;
44722;SDS011;30451;48.638;10.624;2024-03-23T10:01:31;1.23;;;0.82;;
44722;SDS011;30451;48.638;10.624;2024-03-23T10:03:57;1.02;;;0.73;;
44722;SDS011;30451;48.638;10.624;2024-03-23T10:06:23;0.98;;;0.75;;
44722;SDS011;30451;48.638;10.624;2024-03-23T10:08:52;1.27;;;0.80;;
44722;SDS011;30451;48.638;10.624;2024-03-23T10:11:20;0.90;;;0.70;;
44722;SDS011;30451;48.638;10.624;2024-03-23T10:13:46;1.00;;;0.80;;
44722;SDS011;30451;48.638;10.624;2024-03-23T10:16:12;0.95;;;0.70;;
44722;SDS011;30451;48.638;10.624;2024-03-23T10:18:46;1.25;;;0.85;;
44722;SDS011;30451;48.638;10.624;2024-03-23T10:21:13;1.45;;;0.90;;
44722;SDS011;30451;48.638;10.624;2024-03-23T10:23:43;1.10;;;0.80;;
44722;SDS011;30451;48.638;10.624;2024-03-23T10:26:19;1.30;;;0.85;;
44722;SDS011;30451;48.638;10.624;2024-03-23T10:29:00;2.20;;;0.90;;
44722;SDS011;30451;48.638;10.624;2024-03-23T10:31:27;1.70;;;1.00;;
44722;SDS011;30451;48.638;10.624;2024-03-23T10:33:53;1.50;;;0.90;;
44722;SDS011;30451;48.638;10.624;2024-03-23T10:36:20;1.45;;;0.82;;
44722;SDS011;30451;48.638;10.624;2024-03-23T10:38:46;1.17;;;0.70;;
44722;SDS011;30451;48.638;10.624;2024-03-23T10:41:14;1.52;;;0.95;;
44722;SDS011;30451;48.638;10.624;2024-03-23T10:43:40;1.30;;;0.80;;
44722;SDS011;30451;48.638;10.624;2024-03-23T10:46:06;0.88;;;0.80;;
44722;SDS011;30451;48.638;10.624;2024-03-23T10:48:32;1.23;;;0.75;;
44722;SDS011;30451;48.638;10.624;2024-03-23T10:50:58;1.08;;;0.70;;
44722;SDS011;30451;48.638;10.624;2024-03-23T10:53:27;1.48;;;0.70;;
44722;SDS011;30451;48.638;10.624;2024-03-23T10:58:21;1.08;;;0.80;;
44722;SDS011;30451;48.638;10.624;2024-03-23T11:00:52;1.50;;;0.90;;
44722;SDS011;30451;48.638;10.624;2024-03-23T11:05:58;1.33;;;0.87;;
44722;SDS011;30451;48.638;10.624;2024-03-23T11:08:37;1.77;;;0.93;;
44722;SDS011;30451;48.638;10.624;2024-03-23T11:13:50;1.45;;;0.88;;
44722;SDS011;30451;48.638;10.624;2024-03-23T11:16:21;1.13;;;0.80;;
44722;SDS011;30451;48.638;10.624;2024-03-23T11:22:04;1.23;;;0.88;;
44722;SDS011;30451;48.638;10.624;2024-03-23T11:24:30;1.33;;;0.82;;
44722;SDS011;30451;48.638;10.624;2024-03-23T11:26:56;1.13;;;0.75;;
44722;SDS011;30451;48.638;10.624;2024-03-23T11:29:26;1.73;;;0.98;;
44722;SDS011;30451;48.638;10.624;2024-03-23T11:31:53;1.50;;;0.77;;
44722;SDS011;30451;48.638;10.624;2024-03-23T11:34:19;1.63;;;0.80;;
44722;SDS011;30451;48.638;10.624;2024-03-23T11:36:45;1.10;;;0.77;;
44722;SDS011;30451;48.638;10.624;2024-03-23T11:39:13;1.20;;;0.80;;
44722;SDS011;30451;48.638;10.624;2024-03-23T11:41:48;0.90;;;0.70;;
44722;SDS011;30451;48.638;10.624;2024-03-23T11:44:21;1.23;;;0.80;;
44722;SDS011;30451;48.638;10.624;2024-03-23T11:46:49;1.17;;;0.80;;
44722;SDS011;30451;48.638;10.624;2024-03-23T11:49:22;1.30;;;0.80;;
44722;SDS011;30451;48.638;10.624;2024-03-23T11:51:55;1.15;;;0.70;;
44722;SDS011;30451;48.638;10.624;2024-03-23T11:54:21;1.20;;;0.80;;
44722;SDS011;30451;48.638;10.624;2024-03-23T11:56:54;1.10;;;0.70;;
44722;SDS011;30451;48.638;10.624;2024-03-23T11:59:37;1.60;;;0.70;;
44722;SDS011;30451;48.638;10.624;2024-03-23T12:02:11;1.23;;;0.80;;
44722;SDS011;30451;48.638;10.624;2024-03-23T12:04:40;0.82;;;0.70;;
44722;SDS011;30451;48.638;10.624;2024-03-23T12:07:10;1.30;;;0.85;;
44722;SDS011;30451;48.638;10.624;2024-03-23T12:09:37;0.90;;;0.70;;
44722;SDS011;30451;48.638;10.624;2024-03-23T12:12:21;1.23;;;0.90;;
44722;SDS011;30451;48.638;10.624;2024-03-23T12:15:03;1.13;;;0.70;;
44722;SDS011;30451;48.638;10.624;2024-03-23T12:17:30;1.30;;;0.80;;
44722;SDS011;30451;48.638;10.624;2024-03-23T12:19:56;1.35;;;0.80;;
44722;SDS011;30451;48.638;10.624;2024-03-23T12:22:22;1.35;;;0.70;;
44722;SDS011;30451;48.638;10.624;2024-03-23T12:24:49;1.27;;;0.90;;
44722;SDS011;30451;48.638;10.624;2024-03-23T12:27:15;1.05;;;0.70;;
44722;SDS011;30451;48.638;10.624;2024-03-23T12:29:41;1.77;;;0.80;;
44722;SDS011;30451;48.638;10.624;2024-03-23T12:32:08;1.17;;;0.75;;
44722;SDS011;30451;48.638;10.624;2024-03-23T12:34:34;1.30;;;0.90;;
44722;SDS011;30451;48.638;10.624;2024-03-23T12:37:00;0.93;;;0.63;;
44722;SDS011;30451;48.638;10.624;2024-03-23T12:39:26;1.00;;;0.70;;
44722;SDS011;30451;48.638;10.624;2024-03-23T12:41:52;1.63;;;1.00;;
44722;SDS011;30451;48.638;10.624;2024-03-23T12:44:18;1.15;;;0.80;;
44722;SDS011;30451;48.638;10.624;2024-03-23T12:46:44;1.30;;;0.70;;
44722;SDS011;30451;48.638;10.624;2024-03-23T12:49:10;1.40;;;0.80;;
44722;SDS011;30451;48.638;10.624;2024-03-23T12:51:36;1.25;;;0.80;;
44722;SDS011;30451;48.638;10.624;2024-03-23T12:54:02;2.15;;;1.00;;
44722;SDS011;30451;48.638;10.624;2024-03-23T12:56:28;1.70;;;0.95;;
44722;SDS011;30451;48.638;10.624;2024-03-23T12:58:56;1.98;;;1.00;;
44722;SDS011;30451;48.638;10.624;2024-03-23T13:01:25;2.83;;;1.25;;
44722;SDS011;30451;48.638;10.624;2024-03-23T13:03:51;1.90;;;0.98;;
44722;SDS011;30451;48.638;10.624;2024-03-23T13:06:17;2.47;;;1.10;;
44722;SDS011;30451;48.638;10.624;2024-03-23T13:08:44;2.75;;;1.30;;
44722;SDS011;30451;48.638;10.624;2024-03-23T13:11:11;2.65;;;1.17;;
44722;SDS011;30451;48.638;10.624;2024-03-23T13:13:37;2.30;;;1.10;;
44722;SDS011;30451;48.638;10.624;2024-03-23T13:16:03;2.25;;;1.05;;
44722;SDS011;30451;48.638;10.624;2024-03-23T13:18:30;3.20;;;1.25;;
44722;SDS011;30451;48.638;10.624;2024-03-23T13:20:56;2.70;;;1.20;;
44722;SDS011;30451;48.638;10.624;2024-03-23T13:23:22;2.60;;;1.08;;
44722;SDS011;30451;48.638;10.624;2024-03-23T13:25:54;2.72;;;1.20;;
44722;SDS011;30451;48.638;10.624;2024-03-23T13:28:20;2.25;;;1.02;;
44722;SDS011;30451;48.638;10.624;2024-03-23T13:30:51;1.88;;;1.00;;
44722;SDS011;30451;48.638;10.624;2024-03-23T13:33:20;2.17;;;1.10;;
44722;SDS011;30451;48.638;10.624;2024-03-23T13:35:49;2.80;;;1.10;;
44722;SDS011;30451;48.638;10.624;2024-03-23T13:38:20;2.47;;;1.08;;
44722;SDS011;30451;48.638;10.624;2024-03-23T13:41:04;2.83;;;1.33;;
44722;SDS011;30451;48.638;10.624;2024-03-23T13:43:31;2.63;;;1.20;;
44722;SDS011;30451;48.638;10.624;2024-03-23T13:45:57;2.88;;;1.17;;
44722;SDS011;30451;48.638;10.624;2024-03-23T13:48:25;2.10;;;1.00;;
44722;SDS011;30451;48.638;10.624;2024-03-23T13:50:58;2.92;;;1.20;;
44722;SDS011;30451;48.638;10.624;2024-03-23T13:53:24;2.42;;;1.20;;
44722;SDS011;30451;48.638;10.624;2024-03-23T13:55:50;3.50;;;1.30;;
44722;SDS011;30451;48.638;10.624;2024-03-23T13:58:16;2.88;;;1.30;;
44722;SDS011;30451;48.638;10.624;2024-03-23T14:00:42;2.95;;;1.15;;
44722;SDS011;30451;48.638;10.624;2024-03-23T14:03:08;3.03;;;1.30;;
44722;SDS011;30451;48.638;10.624;2024-03-23T14:05:34;2.72;;;1.10;;
44722;SDS011;30451;48.638;10.624;2024-03-23T14:08:00;1.88;;;1.10;;
44722;SDS011;30451;48.638;10.624;2024-03-23T14:10:26;2.83;;;1.08;;
44722;SDS011;30451;48.638;10.624;2024-03-23T14:12:52;3.00;;;1.10;;
44722;SDS011;30451;48.638;10.624;2024-03-23T14:15:18;2.42;;;1.10;;
44722;SDS011;30451;48.638;10.624;2024-03-23T14:17:44;2.30;;;1.00;;
44722;SDS011;30451;48.638;10.624;2024-03-23T14:20:10;2.80;;;1.27;;
44722;SDS011;30451;48.638;10.624;2024-03-23T14:22:36;2.28;;;1.20;;
44722;SDS011;30451;48.638;10.624;2024-03-23T14:25:02;2.70;;;1.27;;
44722;SDS011;30451;48.638;10.624;2024-03-23T14:27:28;2.28;;;1.15;;
44722;SDS011;30451;48.638;10.624;2024-03-23T14:29:54;2.65;;;1.00;;
44722;SDS011;30451;48.638;10.624;2024-03-23T14:32:21;2.60;;;1.17;;
44722;SDS011;30451;48.638;10.624;2024-03-23T14:34:47;1.92;;;1.00;;
44722;SDS011;30451;48.638;10.624;2024-03-23T14:37:12;2.65;;;1.10;;
44722;SDS011;30451;48.638;10.624;2024-03-23T14:39:40;3.35;;;1.20;;
44722;SDS011;30451;48.638;10.624;2024-03-23T14:42:06;2.47;;;1.13;;
44722;SDS011;30451;48.638;10.624;2024-03-23T14:44:33;2.20;;;1.10;;
44722;SDS011;30451;48.638;10.624;2024-03-23T14:46:59;1.95;;;1.02;;
44722;SDS011;30451;48.638;10.624;2024-03-23T14:49:24;1.90;;;1.02;;
44722;SDS011;30451;48.638;10.624;2024-03-23T14:51:51;2.40;;;0.95;;
44722;SDS011;30451;48.638;10.624;2024-03-23T14:54:16;3.70;;;1.20;;
44722;SDS011;30451;48.638;10.624;2024-03-23T14:56:42;2.67;;;1.05;;
44722;SDS011;30451;48.638;10.624;2024-03-23T14:59:08;2.20;;;1.10;;
44722;SDS011;30451;48.638;10.624;2024-03-23T15:01:33;2.75;;;1.20;;
44722;SDS011;30451;48.638;10.624;2024-03-23T15:03:59;2.67;;;1.10;;
44722;SDS011;30451;48.638;10.624;2024-03-23T15:06:25;2.05;;;1.00;;
44722;SDS011;30451;48.638;10.624;2024-03-23T15:08:51;2.40;;;1.10;;
44722;SDS011;30451;48.638;10.624;2024-03-23T15:11:16;2.03;;;1.10;;
44722;SDS011;30451;48.638;10.624;2024-03-23T15:13:44;2.30;;;0.90;;
44722;SDS011;30451;48.638;10.624;2024-03-23T15:16:11;2.45;;;0.98;;
44722;SDS011;30451;48.638;10.624;2024-03-23T15:18:41;2.53;;;1.00;;
44722;SDS011;30451;48.638;10.624;2024-03-23T15:21:06;2.53;;;1.05;;
44722;SDS011;30451;48.638;10.624;2024-03-23T15:23:36;4.25;;;1.30;;
44722;SDS011;30451;48.638;10.624;2024-03-23T15:26:02;2.17;;;1.15;;
44722;SDS011;30451;48.638;10.624;2024-03-23T15:28:28;2.20;;;0.93;;
44722;SDS011;30451;48.638;10.624;2024-03-23T15:31:24;2.20;;;1.00;;
44722;SDS011;30451;48.638;10.624;2024-03-23T15:33:50;2.80;;;1.10;;
44722;SDS011;30451;48.638;10.624;2024-03-23T15:36:16;2.40;;;1.20;;
44722;SDS011;30451;48.638;10.624;2024-03-23T15:38:42;3.15;;;1.00;;
44722;SDS011;30451;48.638;10.624;2024-03-23T15:41:08;1.80;;;0.90;;